Terminal Aerodrome Forecast
Issued by NWS

Home | Current Version | Previous Version | Text Only | Print | Product List | Glossary On
Versions: 1 2 3 4 5 6 7 8 9 10 11 12 13
000
FTUS45 KRIW 302300
TAFRKS
TAF
KRKS 302337Z 3100/3124 24012KT P6SM SCT080
     FM310500 VRB09KT P6SM VCSH SCT060 BKN070
     FM311500 29009KT P6SM VCSH SCT050 BKN080
     FM311800 27020G30KT P6SM SCT050=

USA.gov is the U.S. government's official web portal to all federal, state and local government web resources and services.